Mary Gorgias — 9HPE9 — position and weather

sailwx.info

Track history (hours):
 
Tides and Currents Weather Stations Pressure Air Temp Water Temp Dewpoint Dewpoint Depression Visibility Wind Speed Wind Dir Waves Ship Positions

Mary Gorgias

Last reported at 2018-Mar-30 05:25 UTC. Time now 2018-Apr-19 11:13 UTC.
Position N 36°51' W 075°50'.
Warning: this ship's position is 20 days out of date.

Length 226 m; draft 14.2 m.

Type: Cargo ship. MMSI: 249308000.

Date/timePositionNaut miles runAvg speedWind from/ knotsBaromVisibWave heightAir tempDewpointWater temp
2018-Mar-30 05:25N 36°51' W 075°50'410.3
2018-Mar-30 05:00N 36°53' W 075°54'611.4
2018-Mar-30 04:31N 36°57' W 075°60'510.9
2018-Mar-30 04:01N 36°58' W 076°06'11 9.0
2018-Mar-30 02:47N 36°57' W 076°20'310.2
2018-Mar-30 02:30N 36°54' W 076°20'2 3.2
2018-Mar-30 02:00N 36°53' W 076°20'0 0.0
2018-Mar-30 01:26N 36°53' W 076°20'0 0.0
2018-Mar-30 00:11N 36°53' W 076°20'0 0.0
2018-Mar-29 23:56N 36°53' W 076°20'0 0.0
2018-Mar-29 23:20N 36°53' W 076°20'0 0.0
2018-Mar-29 22:59N 36°53' W 076°20'0 0.0
2018-Mar-29 22:29N 36°53' W 076°20'0 0.0
2018-Mar-29 21:59N 36°53' W 076°20'0 0.0
2018-Mar-29 21:29N 36°53' W 076°20'0 0.0
2018-Mar-29 20:56N 36°53' W 076°20'0 0.0
2018-Mar-29 19:14N 36°53' W 076°20'0 0.0
2018-Mar-29 18:11N 36°53' W 076°20'0 0.0
2018-Mar-29 17:53N 36°53' W 076°20'0 0.0
2018-Mar-29 17:29N 36°53' W 076°20'0 0.0
2018-Mar-29 16:59N 36°53' W 076°20'0 0.0
2018-Mar-29 16:23N 36°53' W 076°20'0 0.0
2018-Mar-29 15:50N 36°53' W 076°20'0 0.0
2018-Mar-29 13:35N 36°53' W 076°20'0 0.0
2018-Mar-29 11:32N 36°53' W 076°20'0 0.0
2018-Mar-29 07:38N 36°53' W 076°20'0 0.0
2018-Mar-29 02:56N 36°53' W 076°20'0 0.0
2018-Mar-29 01:56N 36°53' W 076°20'0 0.0
2018-Mar-28 20:24N 36°53' W 076°20'1 1.3
2018-Mar-28 20:00N 36°53' W 076°20'4 8.4
2018-Mar-28 19:30N 36°57' W 076°20'11 9.3
2018-Mar-28 18:23N 36°59' W 076°07'410.9
2018-Mar-28 18:00N 36°57' W 076°02'3 6.6
2018-Mar-28 17:30N 37°01' W 076°02'  
Track history (hours):
 
Tides and Currents Weather Stations Pressure Air Temp Water Temp Dewpoint Dewpoint Depression Visibility Wind Speed Wind Dir Waves Ship Positions

Mary Gorgias

Last reported at 2018-Mar-30 05:25 UTC. Time now 2018-Apr-19 11:13 UTC.
Position N 36°51' W 075°50'.
Warning: this ship's position is 20 days out of date.

Length 226 m; draft 14.2 m.

Type: Cargo ship. MMSI: 249308000.

Date/timePositionNaut miles runAvg speedWind from/ knotsBaromVisibWave heightAir tempDewpointWater temp
2018-Mar-30 05:25N 36°51' W 075°50'410.3
2018-Mar-30 05:00N 36°53' W 075°54'611.4
2018-Mar-30 04:31N 36°57' W 075°60'510.9
2018-Mar-30 04:01N 36°58' W 076°06'11 9.0
2018-Mar-30 02:47N 36°57' W 076°20'310.2
2018-Mar-30 02:30N 36°54' W 076°20'2 3.2
2018-Mar-30 02:00N 36°53' W 076°20'0 0.0
2018-Mar-30 01:26N 36°53' W 076°20'0 0.0
2018-Mar-30 00:11N 36°53' W 076°20'0 0.0
2018-Mar-29 23:56N 36°53' W 076°20'0 0.0
2018-Mar-29 23:20N 36°53' W 076°20'0 0.0
2018-Mar-29 22:59N 36°53' W 076°20'0 0.0
2018-Mar-29 22:29N 36°53' W 076°20'0 0.0
2018-Mar-29 21:59N 36°53' W 076°20'0 0.0
2018-Mar-29 21:29N 36°53' W 076°20'0 0.0
2018-Mar-29 20:56N 36°53' W 076°20'0 0.0
2018-Mar-29 19:14N 36°53' W 076°20'0 0.0
2018-Mar-29 18:11N 36°53' W 076°20'0 0.0
2018-Mar-29 17:53N 36°53' W 076°20'0 0.0
2018-Mar-29 17:29N 36°53' W 076°20'0 0.0
2018-Mar-29 16:59N 36°53' W 076°20'0 0.0
2018-Mar-29 16:23N 36°53' W 076°20'0 0.0
2018-Mar-29 15:50N 36°53' W 076°20'0 0.0
2018-Mar-29 13:35N 36°53' W 076°20'0 0.0
2018-Mar-29 11:32N 36°53' W 076°20'0 0.0
2018-Mar-29 07:38N 36°53' W 076°20'0 0.0
2018-Mar-29 02:56N 36°53' W 076°20'0 0.0
2018-Mar-29 01:56N 36°53' W 076°20'0 0.0
2018-Mar-28 20:24N 36°53' W 076°20'1 1.3
2018-Mar-28 20:00N 36°53' W 076°20'4 8.4
2018-Mar-28 19:30N 36°57' W 076°20'11 9.3
2018-Mar-28 18:23N 36°59' W 076°07'410.9
2018-Mar-28 18:00N 36°57' W 076°02'3 6.6
2018-Mar-28 17:30N 37°01' W 076°02'  

Dump ship's entire track history